San Juan, PR

4:27 PM AST on December 06, 2016 (GMT -0400)
MARITIME | | Change Station
Active Advisory: Coastal Hazard Statement

Elev 0 ft 18.50 °N, 66.10 °W | Updated 517 days ago

Partly Cloudy
Partly Cloudy
81 °F
Feels Like 85 °F
N
7
Wind Variable Wind from East
Gusts mph

Today
High -- | Low -- °F
--% Chance of Precip.
Yesterday
High -- | Low -- °F
Precip. -- in
Pressure 29.99 in
Visibility 10.0 miles
Clouds Few 2600 ft
Scattered Clouds 3700 ft
Scattered Clouds 6000 ft
Heat Index 85 °F
Dew Point 73 °F
Humidity 75%
Rainfall in
Snow Depth Not available.
6:43 AM 5:47 PM
Waxing Crescent, 45% visible
METAR TJSJ 061956Z 07012KT 10SM FEW026 SCT037 SCT060 29/23 A3000 RMK AO2 SLP156 SHRA DSNT SW T02940233 $
Pressure 29.99 in
Visibility 10.0 miles
Clouds Few 2600 ft
Scattered Clouds 3700 ft
Scattered Clouds 6000 ft
Heat Index 85 °F
Dew Point 73 °F
Humidity 75%
Rainfall in
Snow Depth Not available.
6:43 AM 5:47 PM
Waxing Crescent, 45% visible
METAR TJSJ 061956Z 07012KT 10SM FEW026 SCT037 SCT060 29/23 A3000 RMK AO2 SLP156 SHRA DSNT SW T02940233 $

10-Day Weather Forecast

Almanac

Astronomy

Dec. 06, 2016 Rise Set
Actual Time
Civil Twilight
Nautical Twilight
Astronomical Twilight
Moon
Length of Visible Light
Length of Day
Tomorrow will be .
, % of the Moon is Illuminated

Today's Extremes

State Highs State Lows

Community

WunderPhotos

Upload Photos

1,956,022 photos uploaded!

WunderBlog® & News

Nearby

Air Quality

  Air Quality AQ Index Pollutant
Not available.

Snow Depth

Station Depth Elevation

Earthquake Activity

City Distance Mag. Time & Date
Minimum magnitude displayed is 2.5.

Coastal Water Temperatures

Place Temperature

Stations

Nearby Weather Stations

Station Location Temp. Windchill Dew Point Humidity Wind Precip. Elev Updated Type
                   

Watches & Warnings

Coastal Hazard Statement
Issued: 9:34 AM AST Dec. 6, 2016 – National Weather Service

... High rip current risk remains in effect through late tonight...

* location... the Atlantic shoreline of Puerto Rico... Culebra and
St. Thomas.

* Timing... through late tonight.

* Impacts... breaking waves between 6 and 7 feet that will create
strong currents that can carry even the strongest swimmers out
to sea.

Precautionary/preparedness actions...

There is a high risk of rip currents.

Rip currents are powerful channels of water flowing quickly away
from shore... which occur most often at low spots or breaks in The
Sandbar and in the vicinity of structures such as groins...
jetties and piers. Heed the advice of lifeguards... beach patrol
flags and signs.

If you become caught in a rip current... Yell for help. Remain
calm... do not exhaust yourself and stay afloat while waiting for
help. If you have to swim out of a rip current... swim parallel to
shore and back toward the beach when possible. Do not attempt to
swim directly against a rip current as you will tire quickly.